Archival Weather

Salzburg

Salzburg, Austria (LOWS)

Report from: Thursday, September 21, 2023 3:20 PM CEST
Current time: Sunday, July 14, 2024 1:00 PM CEST

Current weather – Weather history – Daily summaries
Weather forecast

Temperature27.0°C (80.6°F)
Heat index27.8°C (82.0°F)
Dew point16.0°C (60.8°F)
Winds 6 kts (3.1 m/s, 6.9 mph) Vrb
Winds variableWinds variable from North (10°) to East (90°)
Visibility6.2 mi. (10 km)
Clouds Few clouds 6,000 ft. (1,829 m)
Altimeter29.59 in.Hg (1002 mB)
Relative humidity51 %
Density altitude2,014 ft. (614 m)
Remarks No significant changes expected in the next two hours
Flight conditions Visual Meteorological Conditions
Raw dataLOWS 211320Z 05006KT 010V090 9999 FEW060 27/16 Q1002 NOSIG
An error has occurred. This application may no longer respond until reloaded. Reload 🗙